createdAt,value
2018-07-25T00:00:42.977Z,19.20
2018-07-25T00:03:13.243Z,19.10
2018-07-25T00:05:43.473Z,19.10
2018-07-25T00:08:13.729Z,19.10
2018-07-25T00:10:49.891Z,19.10
2018-07-25T00:13:20.269Z,19.00
2018-07-25T00:15:50.493Z,18.90
2018-07-25T00:18:20.725Z,18.90
2018-07-25T00:20:51.010Z,18.80
2018-07-25T00:23:21.288Z,18.70
2018-07-25T00:25:51.540Z,18.80
2018-07-25T00:28:21.776Z,18.70
2018-07-25T00:30:52.029Z,18.70
2018-07-25T00:33:22.323Z,18.70
2018-07-25T00:35:52.560Z,18.60
2018-07-25T00:38:22.833Z,18.60
2018-07-25T00:40:53.171Z,18.50
2018-07-25T00:43:23.485Z,18.40
2018-07-25T00:45:53.786Z,18.40
2018-07-25T00:48:24.394Z,18.30
2018-07-25T00:50:54.618Z,18.30
2018-07-25T00:53:24.884Z,18.30
2018-07-25T00:55:55.131Z,18.30
2018-07-25T00:58:25.417Z,18.20
2018-07-25T01:00:55.731Z,18.20
2018-07-25T01:03:26.010Z,18.10
2018-07-25T01:05:56.281Z,18.00
2018-07-25T01:08:26.513Z,17.90
2018-07-25T01:10:56.714Z,17.90
2018-07-25T01:13:27.163Z,17.90
2018-07-25T01:15:57.380Z,17.80
2018-07-25T01:18:27.608Z,17.80
2018-07-25T01:20:57.855Z,17.80
2018-07-25T01:23:28.128Z,17.80
2018-07-25T01:25:58.385Z,17.80
2018-07-25T01:28:28.599Z,17.80
2018-07-25T01:30:58.833Z,17.70
2018-07-25T01:33:29.088Z,17.70
2018-07-25T01:35:59.311Z,17.60
2018-07-25T01:38:29.533Z,17.60
2018-07-25T01:40:59.930Z,17.50
2018-07-25T01:43:30.291Z,17.40
2018-07-25T01:46:00.491Z,17.40
2018-07-25T01:48:30.869Z,17.40
2018-07-25T01:51:01.096Z,17.40
2018-07-25T01:53:31.324Z,17.40
2018-07-25T01:56:01.553Z,17.40
2018-07-25T01:58:31.823Z,17.30
2018-07-25T02:01:02.072Z,17.30
2018-07-25T02:03:32.370Z,17.40
2018-07-25T02:06:02.620Z,17.40
2018-07-25T02:08:32.856Z,17.30
2018-07-25T02:11:03.158Z,17.20
2018-07-25T02:13:33.413Z,17.30
2018-07-25T02:16:03.659Z,17.30
2018-07-25T02:18:33.936Z,17.30
2018-07-25T02:21:04.207Z,17.20
2018-07-25T02:23:34.469Z,17.10
2018-07-25T02:26:04.758Z,17.10
2018-07-25T02:28:35.118Z,17.00
2018-07-25T02:31:05.350Z,17.00
2018-07-25T02:33:40.906Z,17.00
2018-07-25T02:36:11.149Z,17.00
2018-07-25T02:38:41.432Z,16.90
2018-07-25T02:41:11.695Z,16.90
2018-07-25T02:43:41.971Z,17.00
2018-07-25T02:46:12.216Z,16.90
2018-07-25T02:48:42.699Z,16.90
2018-07-25T02:51:12.962Z,16.80
2018-07-25T02:53:43.221Z,16.80
2018-07-25T02:56:13.476Z,16.70
2018-07-25T02:58:43.803Z,16.70
2018-07-25T03:01:14.121Z,16.60
2018-07-25T03:03:44.364Z,16.60
2018-07-25T03:06:14.621Z,16.60
2018-07-25T03:08:44.893Z,16.60
2018-07-25T03:11:15.177Z,16.60
2018-07-25T03:13:45.548Z,16.60
2018-07-25T03:16:15.809Z,16.60
2018-07-25T03:18:46.094Z,16.60
2018-07-25T03:21:16.401Z,16.60
2018-07-25T03:23:46.646Z,16.60
2018-07-25T03:26:16.864Z,16.50
2018-07-25T03:28:47.228Z,16.50
2018-07-25T03:31:17.662Z,16.50
2018-07-25T03:33:47.906Z,16.50
2018-07-25T03:36:18.160Z,16.50
2018-07-25T03:38:48.414Z,16.50
2018-07-25T03:41:18.664Z,16.50
2018-07-25T03:43:48.962Z,16.40
2018-07-25T03:46:19.209Z,16.50
2018-07-25T03:48:49.793Z,16.50
2018-07-25T03:51:20.053Z,16.50
2018-07-25T03:53:50.334Z,16.40
2018-07-25T03:56:20.630Z,16.50
2018-07-25T03:58:50.871Z,16.50
2018-07-25T04:01:21.133Z,16.50
2018-07-25T04:03:51.370Z,16.40
2018-07-25T04:06:21.640Z,16.40
2018-07-25T04:08:51.937Z,16.50
2018-07-25T04:11:22.261Z,16.50
2018-07-25T04:13:52.626Z,16.60
2018-07-25T04:16:22.925Z,16.60
2018-07-25T04:18:53.204Z,16.70
2018-07-25T04:21:23.482Z,16.70
2018-07-25T04:23:53.768Z,16.80
2018-07-25T04:26:24.029Z,16.80
2018-07-25T04:28:54.394Z,16.80
2018-07-25T04:31:24.811Z,16.80
2018-07-25T04:33:55.074Z,16.90
2018-07-25T04:36:25.399Z,16.90
2018-07-25T04:38:55.709Z,17.00
2018-07-25T04:41:25.955Z,17.00
2018-07-25T04:43:56.257Z,17.00
2018-07-25T04:46:26.711Z,17.10
2018-07-25T04:48:56.943Z,17.10
2018-07-25T04:51:27.213Z,17.20
2018-07-25T04:53:57.500Z,17.20
2018-07-25T04:56:27.768Z,17.30
2018-07-25T04:58:58.129Z,17.30
2018-07-25T05:01:28.461Z,17.40
2018-07-25T05:03:58.849Z,17.40
2018-07-25T05:06:29.176Z,17.50
2018-07-25T05:08:59.535Z,17.60
2018-07-25T05:11:29.791Z,17.60
2018-07-25T05:14:00.143Z,17.70
2018-07-25T05:16:30.404Z,17.70
2018-07-25T05:19:00.683Z,17.80
2018-07-25T05:21:31.051Z,17.90
2018-07-25T05:24:01.552Z,18.00
2018-07-25T05:26:31.911Z,18.10
2018-07-25T05:29:02.312Z,18.20
2018-07-25T05:31:32.583Z,18.30
2018-07-25T05:34:02.865Z,18.30
2018-07-25T05:36:33.173Z,18.30
2018-07-25T05:39:04.105Z,18.40
2018-07-25T05:41:34.377Z,18.50
2018-07-25T05:44:04.697Z,18.50
2018-07-25T05:46:35.033Z,18.60
2018-07-25T05:49:05.712Z,18.60
2018-07-25T05:51:36.528Z,18.70
2018-07-25T05:54:06.969Z,18.70
2018-07-25T05:56:37.430Z,18.80
2018-07-25T05:59:07.909Z,18.90
2018-07-25T06:01:38.195Z,19.00
2018-07-25T06:04:08.624Z,19.10
2018-07-25T06:06:38.960Z,19.20
2018-07-25T06:09:10.352Z,19.30
2018-07-25T06:11:40.673Z,19.40
2018-07-25T06:14:10.952Z,19.60
2018-07-25T06:16:41.320Z,19.60
2018-07-25T06:19:11.698Z,19.70
2018-07-25T06:21:41.984Z,19.80
2018-07-25T06:24:12.357Z,20.00
2018-07-25T06:26:42.688Z,20.10
2018-07-25T06:29:13.109Z,20.20
2018-07-25T06:31:43.496Z,20.30
2018-07-25T06:34:14.106Z,20.40
2018-07-25T06:36:44.531Z,20.50
2018-07-25T06:39:14.897Z,20.60
2018-07-25T06:41:45.875Z,20.70
2018-07-25T06:44:16.373Z,20.80
2018-07-25T06:46:46.749Z,20.90
2018-07-25T06:49:17.127Z,21.00
2018-07-25T06:51:47.461Z,21.10
2018-07-25T06:54:17.857Z,21.30
2018-07-25T06:56:48.192Z,21.40
2018-07-25T06:59:18.469Z,21.70
2018-07-25T07:01:48.915Z,22.00
2018-07-25T07:04:19.233Z,22.10
2018-07-25T07:06:49.631Z,22.30
2018-07-25T07:09:19.941Z,22.50
2018-07-25T07:11:50.244Z,22.70
2018-07-25T07:14:20.566Z,22.90
2018-07-25T07:16:50.833Z,23.10
2018-07-25T07:19:21.285Z,23.20
2018-07-25T07:21:51.652Z,23.30
2018-07-25T07:24:22.049Z,23.50
2018-07-25T07:26:52.322Z,23.60
2018-07-25T07:29:25.208Z,23.70
2018-07-25T07:31:55.498Z,23.70
2018-07-25T07:34:26.197Z,23.80
2018-07-25T07:36:56.541Z,24.00
2018-07-25T07:39:26.862Z,24.10
2018-07-25T07:41:57.171Z,24.20
2018-07-25T07:44:27.611Z,24.30
2018-07-25T07:46:58.644Z,24.40
2018-07-25T07:49:28.973Z,23.50
2018-07-25T07:51:59.395Z,24.50
2018-07-25T07:54:29.700Z,24.60
2018-07-25T07:57:00.040Z,24.70
2018-07-25T07:59:30.424Z,24.80
2018-07-25T08:02:00.753Z,24.90
2018-07-25T08:04:31.126Z,24.90
2018-07-25T08:07:01.467Z,24.90
2018-07-25T08:09:31.780Z,24.90
2018-07-25T08:12:02.116Z,25.00
2018-07-25T08:14:32.434Z,25.10
2018-07-25T08:17:02.775Z,25.10
2018-07-25T08:22:03.204Z,25.20
2018-07-25T08:27:03.476Z,25.20
2018-07-25T08:29:33.824Z,25.30
2018-07-25T08:32:04.105Z,25.40
2018-07-25T08:34:34.522Z,25.50
2018-07-25T08:37:04.932Z,25.60
2018-07-25T08:39:35.293Z,25.70
2018-07-25T08:42:05.652Z,25.80
2018-07-25T08:44:35.957Z,25.80
2018-07-25T08:47:06.492Z,26.00
2018-07-25T08:49:36.859Z,26.10
2018-07-25T08:52:07.184Z,26.10
2018-07-25T08:54:37.491Z,26.20
2018-07-25T08:57:07.833Z,26.20
2018-07-25T08:59:38.160Z,26.30
2018-07-25T09:02:08.495Z,26.30
2018-07-25T09:04:38.792Z,26.30
2018-07-25T09:07:09.097Z,26.40
2018-07-25T09:09:39.496Z,26.50
2018-07-25T09:12:09.786Z,26.40
2018-07-25T09:17:09.999Z,26.70
2018-07-25T09:19:40.358Z,26.80
2018-07-25T09:22:10.660Z,26.80
2018-07-25T09:24:41.060Z,26.80
2018-07-25T09:27:11.331Z,26.90
2018-07-25T09:32:11.513Z,27.10
2018-07-25T09:34:41.818Z,27.20
2018-07-25T09:37:12.061Z,27.20
2018-07-25T09:39:42.329Z,27.30
2018-07-25T09:42:12.556Z,27.50
2018-07-25T09:44:42.893Z,27.70
2018-07-25T09:47:13.175Z,27.80
2018-07-25T09:49:43.517Z,28.00
2018-07-25T09:52:13.800Z,28.20
2018-07-25T09:54:44.142Z,28.10
2018-07-25T09:57:14.417Z,27.90
2018-07-25T09:59:44.815Z,27.60
2018-07-25T10:02:15.115Z,27.40
2018-07-25T10:04:45.428Z,27.40
2018-07-25T10:07:15.901Z,27.60
2018-07-25T10:09:46.172Z,27.80
2018-07-25T10:12:16.822Z,28.10
2018-07-25T10:14:47.176Z,28.50
2018-07-25T10:19:48.266Z,28.90
2018-07-25T10:22:18.668Z,28.70
2018-07-25T10:24:50.735Z,28.40
2018-07-25T10:27:21.189Z,28.10
2018-07-25T10:29:51.386Z,27.90
2018-07-25T10:32:21.689Z,28.00
2018-07-25T10:34:51.973Z,28.10
2018-07-25T10:37:22.394Z,28.30
2018-07-25T10:39:52.768Z,28.70
2018-07-25T10:42:23.015Z,29.20
2018-07-25T10:44:53.388Z,29.80
2018-07-25T10:47:23.675Z,30.40
2018-07-25T10:49:54.101Z,30.90
2018-07-25T10:52:24.349Z,31.20
2018-07-25T10:54:54.645Z,31.60
2018-07-25T10:57:24.917Z,31.90
2018-07-25T10:59:55.258Z,32.10
2018-07-25T11:02:25.660Z,31.90
2018-07-25T11:04:55.913Z,31.50
2018-07-25T11:07:26.384Z,31.20
2018-07-25T11:09:56.716Z,30.90
2018-07-25T11:12:27.076Z,30.80
2018-07-25T11:14:57.461Z,30.50
2018-07-25T11:17:27.785Z,30.20
2018-07-25T11:19:58.089Z,29.50
2018-07-25T11:22:28.424Z,29.10
2018-07-25T11:24:58.711Z,29.20
2018-07-25T11:27:29.505Z,29.80
2018-07-25T11:29:59.932Z,30.50
2018-07-25T11:32:31.045Z,31.40
2018-07-25T11:35:01.387Z,32.20
2018-07-25T11:37:31.806Z,33.10
2018-07-25T11:40:02.214Z,33.70
2018-07-25T11:42:32.605Z,34.10
2018-07-25T11:45:03.122Z,34.50
2018-07-25T11:47:33.394Z,34.70
2018-07-25T11:50:03.822Z,34.70
2018-07-25T11:52:34.140Z,35.20
2018-07-25T11:55:04.898Z,35.70
2018-07-25T11:57:35.234Z,35.30
2018-07-25T12:00:06.465Z,34.50
2018-07-25T12:02:36.845Z,33.50
2018-07-25T12:07:37.316Z,32.80
2018-07-25T12:10:07.726Z,33.50
2018-07-25T12:12:38.096Z,34.10
2018-07-25T12:15:10.559Z,34.00
2018-07-25T12:17:41.163Z,33.80
2018-07-25T12:20:11.612Z,33.90
2018-07-25T12:22:42.740Z,33.60
2018-07-25T12:25:13.210Z,34.00
2018-07-25T12:27:44.096Z,35.00
2018-07-25T12:30:14.796Z,35.90
2018-07-25T12:32:45.127Z,36.30
2018-07-25T12:35:15.487Z,35.90
2018-07-25T12:37:45.778Z,36.10
2018-07-25T12:40:16.173Z,36.90
2018-07-25T12:45:23.901Z,38.60
2018-07-25T12:47:54.236Z,39.00
2018-07-25T12:50:24.583Z,39.30
2018-07-25T12:52:55.136Z,38.50
2018-07-25T12:55:25.546Z,37.20
2018-07-25T12:57:55.856Z,37.20
2018-07-25T13:00:26.141Z,36.80
2018-07-25T13:02:56.541Z,36.20
2018-07-25T13:05:26.806Z,35.40
2018-07-25T13:07:57.140Z,34.60
2018-07-25T13:10:27.507Z,34.50
2018-07-25T13:12:57.875Z,34.90
2018-07-25T13:15:28.229Z,35.30
2018-07-25T13:17:58.580Z,36.30
2018-07-25T13:20:28.920Z,36.90
2018-07-25T13:22:59.266Z,36.90
2018-07-25T13:25:29.630Z,36.10
2018-07-25T13:27:59.994Z,36.00
2018-07-25T13:30:30.338Z,36.50
2018-07-25T13:33:00.783Z,36.70
2018-07-25T13:35:31.118Z,36.90
2018-07-25T13:38:01.433Z,37.30
2018-07-25T13:40:31.801Z,37.70
2018-07-25T13:43:02.113Z,38.10
2018-07-25T13:45:32.596Z,38.00
2018-07-25T13:48:02.852Z,37.80
2018-07-25T13:50:33.204Z,37.70
2018-07-25T13:53:03.933Z,37.30
2018-07-25T13:55:34.258Z,36.50
2018-07-25T13:58:04.637Z,35.90
2018-07-25T14:00:35.048Z,35.30
2018-07-25T14:03:05.538Z,35.00
2018-07-25T14:05:35.864Z,34.20
2018-07-25T14:08:06.448Z,33.70
2018-07-25T14:10:36.930Z,33.10
2018-07-25T14:13:07.381Z,32.90
2018-07-25T14:15:38.462Z,32.70
2018-07-25T14:18:08.938Z,32.70
2018-07-25T14:20:39.276Z,33.10
2018-07-25T14:23:09.556Z,33.40
2018-07-25T14:25:39.889Z,32.70
2018-07-25T14:28:10.169Z,32.70
2018-07-25T14:30:40.613Z,33.10
2018-07-25T14:33:10.871Z,33.20
2018-07-25T14:35:41.234Z,33.60
2018-07-25T14:38:11.617Z,33.90
2018-07-25T14:40:42.025Z,34.00
2018-07-25T14:43:12.401Z,34.10
2018-07-25T14:45:42.695Z,34.40
2018-07-25T14:48:13.056Z,34.40
2018-07-25T14:50:43.387Z,34.10
2018-07-25T14:53:13.740Z,34.40
2018-07-25T14:55:44.057Z,34.90
2018-07-25T14:58:14.416Z,34.90
2018-07-25T15:00:44.793Z,35.00
2018-07-25T15:03:15.220Z,34.80
2018-07-25T15:05:45.678Z,34.80
2018-07-25T15:08:16.039Z,34.90
2018-07-25T15:10:46.458Z,35.20
2018-07-25T15:13:16.753Z,35.50
2018-07-25T15:18:17.208Z,34.70
2018-07-25T15:20:47.633Z,34.40
2018-07-25T15:23:34.768Z,34.70
2018-07-25T15:26:05.132Z,34.60
2018-07-25T15:28:35.422Z,34.80
2018-07-25T15:31:05.881Z,34.80
2018-07-25T15:33:36.218Z,34.50
2018-07-25T15:36:06.650Z,34.60
2018-07-25T15:38:36.967Z,35.70
2018-07-25T15:43:37.512Z,36.10
2018-07-25T15:48:37.894Z,36.30
2018-07-25T15:51:09.256Z,35.90
2018-07-25T15:53:39.546Z,36.20
2018-07-25T15:56:09.905Z,36.20
2018-07-25T15:58:40.353Z,36.50
2018-07-25T16:01:10.889Z,35.40
2018-07-25T16:03:41.229Z,33.90
2018-07-25T16:08:41.615Z,32.80
2018-07-25T16:11:12.127Z,32.80
2018-07-25T16:13:42.932Z,34.10
2018-07-25T16:16:13.230Z,35.80
2018-07-25T16:18:43.662Z,37.40
2018-07-25T16:21:14.021Z,38.20
2018-07-25T16:23:44.404Z,39.20
2018-07-25T16:26:14.817Z,40.10
2018-07-25T16:28:45.526Z,40.00
2018-07-25T16:31:16.141Z,40.40
2018-07-25T16:33:46.568Z,40.40
2018-07-25T16:36:16.951Z,40.50
2018-07-25T16:38:47.341Z,40.60
2018-07-25T16:41:17.707Z,40.80
2018-07-25T16:43:48.062Z,40.30
2018-07-25T16:46:18.488Z,39.80
2018-07-25T16:51:18.700Z,38.60
2018-07-25T20:48:43.474Z,23.60
2018-07-25T20:51:13.834Z,23.20
2018-07-25T20:53:44.107Z,23.20
2018-07-25T20:56:14.406Z,23.20
2018-07-25T20:58:44.785Z,23.10
2018-07-25T21:01:15.037Z,23.10
2018-07-25T21:03:45.346Z,22.90
2018-07-25T21:06:15.658Z,22.70
2018-07-25T21:08:45.969Z,22.60
2018-07-25T21:13:46.255Z,22.40
2018-07-25T21:16:16.583Z,22.30
2018-07-25T21:18:46.964Z,22.20
2018-07-25T21:21:17.413Z,22.20
2018-07-25T21:23:47.669Z,22.10
2018-07-25T21:26:17.925Z,22.00
2018-07-25T21:28:48.302Z,22.00
2018-07-25T21:31:18.566Z,21.90
2018-07-25T21:33:48.964Z,21.90
2018-07-25T21:36:19.232Z,21.80
2018-07-25T21:38:49.611Z,21.80
2018-07-25T21:41:19.930Z,21.70
2018-07-25T21:43:50.222Z,21.70
2018-07-25T21:46:20.558Z,21.70
2018-07-25T21:48:50.934Z,21.60
2018-07-25T21:51:21.271Z,21.50
2018-07-25T21:53:51.566Z,21.50
2018-07-25T21:56:21.910Z,21.50
2018-07-25T21:58:52.155Z,21.40
2018-07-25T22:01:22.461Z,21.40
2018-07-25T22:03:52.727Z,21.40
2018-07-25T22:06:23.072Z,21.40
2018-07-25T22:08:53.372Z,21.30
2018-07-25T22:11:23.586Z,21.30
2018-07-25T22:13:55.066Z,21.30
2018-07-25T22:16:26.747Z,21.30
2018-07-25T22:18:56.988Z,21.20
2018-07-25T22:23:57.175Z,21.10
2018-07-25T22:26:27.461Z,21.00
2018-07-25T22:28:57.749Z,21.00
2018-07-25T22:31:28.172Z,20.90
2018-07-25T22:33:58.487Z,20.90
2018-07-25T22:36:28.791Z,20.80
2018-07-25T22:38:59.081Z,20.80
2018-07-25T22:41:29.397Z,20.80
2018-07-25T22:43:59.686Z,20.80
2018-07-25T22:46:30.017Z,20.70
2018-07-25T22:49:00.297Z,20.60
2018-07-25T22:51:30.813Z,20.60
2018-07-25T22:54:01.133Z,20.50
2018-07-25T22:56:31.414Z,20.50
2018-07-25T22:59:01.756Z,20.50
2018-07-25T23:01:32.026Z,20.40
2018-07-25T23:04:02.254Z,20.40
2018-07-25T23:06:32.524Z,20.40
2018-07-25T23:09:02.849Z,20.40
2018-07-25T23:11:33.069Z,20.30
2018-07-25T23:14:03.362Z,20.30
2018-07-25T23:16:33.678Z,20.20
2018-07-25T23:19:03.942Z,20.20
2018-07-25T23:21:35.385Z,20.20
2018-07-25T23:24:05.654Z,20.10
2018-07-25T23:26:35.937Z,20.10
2018-07-25T23:29:06.205Z,20.00
2018-07-25T23:31:36.508Z,20.00
2018-07-25T23:34:06.833Z,19.90
2018-07-25T23:36:37.129Z,19.90
2018-07-25T23:39:09.937Z,19.90
2018-07-25T23:41:40.554Z,19.90
2018-07-25T23:44:10.807Z,19.90
2018-07-25T23:46:41.112Z,19.80
2018-07-25T23:49:11.393Z,19.70
2018-07-25T23:51:41.937Z,19.70
2018-07-25T23:54:12.226Z,19.60
2018-07-25T23:56:42.516Z,19.60
2018-07-25T23:59:12.820Z,19.60
